Time;durP1;ratioP1;P1;durP2;ratioP2;P2;SDS_P1;SDS_P2;PMS_P1;PMS_P2;Temp;Humidity;BMP_temperature;BMP_pressure;BME280_temperature;BME280_humidity;BME280_pressure;Samples;Min_cycle;Max_cycle;Signal;HPM_P1;HPM_P2
2023/08/07 00:02:10;;;;;;;5.85;3.15;;;;;;;;;;5064808;28;20048;-80
2023/08/07 00:04:36;;;;;;;6.07;3.45;;;;;;;;;;5043750;28;20551;-80
2023/08/07 00:07:02;;;;;;;4.95;3.17;;;;;;;;;;5051630;28;20087;-80
2023/08/07 00:09:28;;;;;;;6.97;3.30;;;;;;;;;;5077027;28;20056;-80
2023/08/07 00:11:55;;;;;;;4.88;3.58;;;;;;;;;;5077962;28;20041;-80
2023/08/07 00:14:21;;;;;;;5.75;3.55;;;;;;;;;;5078089;28;20053;-80
2023/08/07 00:16:47;;;;;;;3.50;2.95;;;;;;;;;;5058268;28;20076;-80
2023/08/07 00:19:13;;;;;;;6.38;3.00;;;;;;;;;;5060189;28;20376;-80
2023/08/07 00:21:39;;;;;;;5.53;3.08;;;;;;;;;;5056907;28;20073;-80
2023/08/07 00:24:05;;;;;;;5.72;3.05;;;;;;;;;;5068133;28;20060;-80
2023/08/07 00:26:32;;;;;;;4.80;3.10;;;;;;;;;;5069907;28;20045;-80
2023/08/07 00:28:58;;;;;;;4.75;2.72;;;;;;;;;;5059221;28;20051;-80
2023/08/07 00:31:24;;;;;;;7.15;3.20;;;;;;;;;;5071425;28;20128;-80
2023/08/07 00:33:53;;;;;;;7.15;2.83;;;;;;;;;;5057596;28;20048;-80
2023/08/07 00:36:20;;;;;;;6.47;3.47;;;;;;;;;;5070916;28;20051;-80
2023/08/07 00:38:46;;;;;;;6.28;3.25;;;;;;;;;;5071591;28;20052;-80
2023/08/07 00:41:12;;;;;;;13.27;3.28;;;;;;;;;;5077204;28;20177;-80
2023/08/07 00:43:38;;;;;;;11.15;3.70;;;;;;;;;;5060129;28;20052;-80
2023/08/07 00:46:04;;;;;;;12.63;3.95;;;;;;;;;;5059251;28;20080;-80
2023/08/07 00:48:31;;;;;;;10.25;3.90;;;;;;;;;;5058588;28;20052;-80
2023/08/07 00:50:58;;;;;;;11.43;4.03;;;;;;;;;;5057153;28;20045;-80
2023/08/07 00:53:24;;;;;;;11.38;3.40;;;;;;;;;;5065755;28;20037;-80
2023/08/07 00:55:51;;;;;;;11.07;3.95;;;;;;;;;;5075895;28;20043;-80
2023/08/07 00:58:17;;;;;;;8.30;3.40;;;;;;;;;;5062193;28;20422;-80
2023/08/07 01:00:43;;;;;;;7.57;3.15;;;;;;;;;;5074786;28;20051;-80
2023/08/07 01:03:12;;;;;;;8.27;3.38;;;;;;;;;;5065691;28;20392;-80
2023/08/07 01:05:38;;;;;;;12.13;4.15;;;;;;;;;;5059492;28;20601;-80
2023/08/07 01:08:05;;;;;;;9.88;3.67;;;;;;;;;;5061087;28;20106;-80
2023/08/07 01:10:37;;;;;;;9.75;3.70;;;;;;;;;;5056336;28;20398;-80
2023/08/07 01:13:11;;;;;;;9.27;3.88;;;;;;;;;;5067880;28;20128;-80
2023/08/07 01:15:38;;;;;;;11.80;3.83;;;;;;;;;;5084997;28;20075;-80
2023/08/07 01:18:05;;;;;;;13.55;3.47;;;;;;;;;;5082178;28;20040;-80
2023/08/07 01:20:31;;;;;;;10.55;3.40;;;;;;;;;;5058415;28;20120;-80
2023/08/07 01:22:58;;;;;;;9.80;3.70;;;;;;;;;;5059507;28;20049;-80
2023/08/07 01:25:24;;;;;;;10.13;3.80;;;;;;;;;;5064589;28;20052;-80
2023/08/07 01:27:53;;;;;;;9.40;4.22;;;;;;;;;;5057473;28;20523;-80
2023/08/07 01:30:37;;;;;;;8.45;3.42;;;;;;;;;;5057127;28;20119;-80
2023/08/07 01:33:03;;;;;;;8.35;3.50;;;;;;;;;;5057884;28;20045;-80
2023/08/07 01:35:38;;;;;;;9.13;3.65;;;;;;;;;;5062293;28;20079;-80
2023/08/07 01:38:05;;;;;;;14.25;4.30;;;;;;;;;;5056650;28;20045;-80
2023/08/07 01:40:32;;;;;;;11.48;4.07;;;;;;;;;;5056851;28;20045;-80
2023/08/07 01:42:58;;;;;;;7.68;3.25;;;;;;;;;;5058039;28;20060;-80
2023/08/07 01:45:27;;;;;;;6.38;3.45;;;;;;;;;;5070919;28;20068;-80
2023/08/07 01:47:54;;;;;;;11.20;4.10;;;;;;;;;;5055395;28;20049;-80
2023/08/07 01:50:20;;;;;;;9.57;3.78;;;;;;;;;;5056668;28;20045;-80
2023/08/07 01:52:46;;;;;;;10.98;3.90;;;;;;;;;;5065755;28;20044;-80
2023/08/07 01:55:14;;;;;;;9.93;4.35;;;;;;;;;;5068525;28;20045;-80
2023/08/07 01:57:40;;;;;;;5.90;3.70;;;;;;;;;;5064108;28;20124;-80
2023/08/07 02:00:08;;;;;;;7.53;3.50;;;;;;;;;;5056245;28;20048;-80
2023/08/07 02:02:34;;;;;;;6.18;3.53;;;;;;;;;;5056105;28;20534;-80
2023/08/07 02:05:00;;;;;;;8.35;3.90;;;;;;;;;;5071600;28;20045;-80
2023/08/07 02:07:26;;;;;;;5.90;3.85;;;;;;;;;;5064102;28;20116;-80
2023/08/07 02:09:52;;;;;;;9.65;3.95;;;;;;;;;;5056242;28;20045;-80
2023/08/07 02:12:18;;;;;;;9.30;3.78;;;;;;;;;;5055475;28;20045;-80
2023/08/07 02:14:44;;;;;;;6.53;3.10;;;;;;;;;;5055739;28;20052;-80
2023/08/07 02:17:10;;;;;;;7.65;2.67;;;;;;;;;;5069294;28;20036;-80
2023/08/07 02:19:36;;;;;;;11.57;2.88;;;;;;;;;;5058656;28;20045;-80
2023/08/07 02:22:03;;;;;;;9.65;3.30;;;;;;;;;;5058752;28;20506;-79
2023/08/07 02:24:29;;;;;;;6.25;2.83;;;;;;;;;;5071204;28;20044;-79
2023/08/07 02:26:55;;;;;;;5.88;2.55;;;;;;;;;;5072871;28;20076;-80
2023/08/07 02:29:21;;;;;;;8.48;2.92;;;;;;;;;;5075465;28;20045;-80
2023/08/07 02:31:47;;;;;;;8.00;3.13;;;;;;;;;;5073034;28;20051;-80
2023/08/07 02:34:13;;;;;;;6.35;2.55;;;;;;;;;;5054499;28;20122;-80
2023/08/07 02:36:39;;;;;;;9.32;2.80;;;;;;;;;;5063194;28;20033;-80
2023/08/07 02:39:05;;;;;;;6.00;2.75;;;;;;;;;;5074098;28;20102;-80
2023/08/07 02:41:31;;;;;;;5.88;2.40;;;;;;;;;;5072146;28;20049;-80
2023/08/07 02:43:58;;;;;;;10.10;3.95;;;;;;;;;;5053934;28;20095;-80
2023/08/07 02:46:24;;;;;;;6.70;3.25;;;;;;;;;;5064522;28;20514;-80
2023/08/07 02:48:50;;;;;;;12.68;4.28;;;;;;;;;;5074195;28;20044;-80
2023/08/07 02:51:16;;;;;;;10.80;3.67;;;;;;;;;;5064879;28;20078;-80
2023/08/07 02:53:42;;;;;;;11.65;3.83;;;;;;;;;;5074226;28;20383;-80
2023/08/07 02:56:08;;;;;;;11.50;4.50;;;;;;;;;;5068161;28;20390;-80
2023/08/07 02:58:35;;;;;;;12.52;4.60;;;;;;;;;;5059577;28;20048;-80
2023/08/07 03:01:07;;;;;;;14.88;4.43;;;;;;;;;;5053498;28;20048;-80
2023/08/07 03:03:33;;;;;;;11.20;3.70;;;;;;;;;;5057311;28;20380;-80
2023/08/07 03:05:59;;;;;;;11.02;4.25;;;;;;;;;;5073403;28;20316;-80
2023/08/07 03:08:25;;;;;;;15.05;3.85;;;;;;;;;;5071703;28;20052;-80
2023/08/07 03:10:55;;;;;;;11.82;3.45;;;;;;;;;;5071288;28;20118;-80
2023/08/07 03:13:22;;;;;;;11.30;3.42;;;;;;;;;;5070392;28;20483;-80
2023/08/07 03:15:49;;;;;;;12.18;3.40;;;;;;;;;;5067879;28;20124;-80
2023/08/07 03:18:16;;;;;;;12.60;3.88;;;;;;;;;;5055084;28;20504;-80
2023/08/07 03:20:43;;;;;;;10.70;3.80;;;;;;;;;;5067610;28;20037;-80
2023/08/07 03:23:09;;;;;;;12.80;4.00;;;;;;;;;;5052650;28;20126;-80
2023/08/07 03:25:35;;;;;;;11.23;3.60;;;;;;;;;;5053014;28;20041;-80
2023/08/07 03:28:01;;;;;;;15.43;3.53;;;;;;;;;;5058025;28;20044;-80
2023/08/07 03:30:27;;;;;;;10.57;3.47;;;;;;;;;;5073512;28;20052;-80
2023/08/07 03:32:53;;;;;;;7.93;3.47;;;;;;;;;;5055082;28;20120;-80
2023/08/07 03:35:19;;;;;;;11.43;3.47;;;;;;;;;;5056456;28;20479;-80
2023/08/07 03:37:45;;;;;;;10.32;3.28;;;;;;;;;;5066895;28;20142;-80
2023/08/07 03:40:12;;;;;;;15.60;3.60;;;;;;;;;;5071039;28;20466;-80
2023/08/07 03:42:38;;;;;;;10.52;3.45;;;;;;;;;;5065609;28;20136;-80
2023/08/07 03:45:04;;;;;;;12.82;3.88;;;;;;;;;;5052688;28;20049;-80
2023/08/07 03:47:33;;;;;;;10.23;3.30;;;;;;;;;;5051990;28;20049;-80
2023/08/07 03:49:59;;;;;;;10.13;3.42;;;;;;;;;;5054943;28;20121;-80
2023/08/07 03:52:25;;;;;;;11.55;3.47;;;;;;;;;;5060603;28;20044;-80
2023/08/07 03:54:51;;;;;;;5.72;3.00;;;;;;;;;;5055426;28;20049;-80
2023/08/07 03:57:18;;;;;;;8.68;3.67;;;;;;;;;;5061279;28;20135;-80
2023/08/07 03:59:44;;;;;;;9.00;3.10;;;;;;;;;;5068137;28;20056;-80
2023/08/07 04:02:10;;;;;;;9.38;3.35;;;;;;;;;;5062960;28;20052;-79
2023/08/07 04:04:36;;;;;;;16.52;4.53;;;;;;;;;;5073483;28;20122;-79
2023/08/07 04:07:02;;;;;;;12.60;4.03;;;;;;;;;;5075022;28;20040;-79
2023/08/07 04:09:28;;;;;;;11.30;4.43;;;;;;;;;;5072631;28;20521;-79
2023/08/07 04:11:54;;;;;;;13.27;4.30;;;;;;;;;;5076241;28;20136;-79
2023/08/07 04:14:20;;;;;;;11.10;3.67;;;;;;;;;;5073467;28;20044;-79
2023/08/07 04:16:46;;;;;;;17.55;4.47;;;;;;;;;;5069079;28;20529;-79
2023/08/07 04:19:12;;;;;;;15.63;4.10;;;;;;;;;;5062884;28;20042;-79
2023/08/07 04:21:38;;;;;;;18.25;4.55;;;;;;;;;;5059329;28;20518;-79
2023/08/07 04:24:10;;;;;;;14.65;4.85;;;;;;;;;;5069349;28;20118;-79
2023/08/07 04:26:36;;;;;;;12.70;5.03;;;;;;;;;;5055542;28;20046;-79
2023/08/07 04:29:02;;;;;;;16.10;4.93;;;;;;;;;;5061555;28;20044;-79
2023/08/07 04:31:30;;;;;;;17.17;5.50;;;;;;;;;;5071903;28;20037;-79
2023/08/07 04:33:56;;;;;;;13.82;4.82;;;;;;;;;;5073858;28;20531;-79
2023/08/07 04:36:23;;;;;;;11.65;4.13;;;;;;;;;;5075304;28;20049;-79
2023/08/07 04:38:49;;;;;;;15.43;4.10;;;;;;;;;;5073978;28;20063;-79
2023/08/07 04:41:15;;;;;;;12.90;4.80;;;;;;;;;;5075362;28;20040;-79
2023/08/07 04:43:42;;;;;;;12.93;5.13;;;;;;;;;;5066127;28;20065;-79
2023/08/07 04:46:09;;;;;;;17.48;5.05;;;;;;;;;;5075638;28;20052;-79
2023/08/07 04:48:35;;;;;;;15.40;5.22;;;;;;;;;;5066852;28;20101;-79
2023/08/07 04:51:01;;;;;;;14.50;4.90;;;;;;;;;;5066418;28;20052;-79
2023/08/07 04:53:27;;;;;;;18.33;5.50;;;;;;;;;;5063320;28;20041;-79
2023/08/07 04:55:53;;;;;;;14.15;5.25;;;;;;;;;;5071831;28;20037;-79
2023/08/07 04:58:19;;;;;;;15.45;4.53;;;;;;;;;;5057959;28;20103;-79
2023/08/07 05:00:46;;;;;;;8.55;3.47;;;;;;;;;;5057401;28;20117;-79
2023/08/07 05:03:12;;;;;;;11.15;3.83;;;;;;;;;;5057794;28;20036;-79
2023/08/07 05:05:38;;;;;;;13.05;4.15;;;;;;;;;;5068163;28;20094;-79
2023/08/07 05:08:04;;;;;;;9.20;3.58;;;;;;;;;;5056753;28;20416;-79
2023/08/07 05:10:30;;;;;;;11.90;3.50;;;;;;;;;;5057139;28;20033;-79
2023/08/07 05:12:56;;;;;;;13.85;3.63;;;;;;;;;;5056564;28;20115;-79
2023/08/07 05:15:23;;;;;;;14.30;3.88;;;;;;;;;;5063966;28;20106;-79
2023/08/07 05:17:49;;;;;;;10.02;4.13;;;;;;;;;;5076000;28;20044;-79
2023/08/07 05:20:15;;;;;;;14.73;4.40;;;;;;;;;;5068096;28;20045;-79
2023/08/07 05:22:41;;;;;;;6.20;3.40;;;;;;;;;;5066067;28;20048;-79
2023/08/07 05:25:09;;;;;;;8.52;3.33;;;;;;;;;;5065991;28;20518;-79
2023/08/07 05:27:35;;;;;;;8.23;3.53;;;;;;;;;;5058882;28;20100;-79
2023/08/07 05:30:01;;;;;;;13.27;4.25;;;;;;;;;;5056138;28;20128;-79
2023/08/07 05:32:28;;;;;;;9.90;3.30;;;;;;;;;;5056157;28;20041;-79
2023/08/07 05:34:54;;;;;;;10.35;4.00;;;;;;;;;;5055221;28;20499;-79
2023/08/07 05:37:20;;;;;;;15.20;3.70;;;;;;;;;;5064856;28;20049;-79
2023/08/07 05:39:47;;;;;;;6.72;2.88;;;;;;;;;;5071973;28;20056;-79
2023/08/07 05:42:13;;;;;;;9.00;3.40;;;;;;;;;;5055726;28;20052;-79
2023/08/07 05:44:39;;;;;;;7.93;3.20;;;;;;;;;;5053980;28;20508;-79
2023/08/07 05:47:05;;;;;;;8.95;3.42;;;;;;;;;;5054732;28;20099;-79
2023/08/07 05:49:31;;;;;;;10.50;3.95;;;;;;;;;;5055756;28;20040;-79
2023/08/07 05:51:57;;;;;;;11.45;3.30;;;;;;;;;;5074925;28;20047;-79
2023/08/07 05:54:23;;;;;;;9.93;3.65;;;;;;;;;;5063466;28;20045;-79
2023/08/07 05:56:49;;;;;;;8.63;3.50;;;;;;;;;;5055204;28;20325;-79
2023/08/07 05:59:15;;;;;;;4.72;2.83;;;;;;;;;;5066203;28;20040;-80
2023/08/07 06:01:41;;;;;;;6.60;2.92;;;;;;;;;;5064936;28;20108;-79
2023/08/07 06:04:08;;;;;;;7.22;2.55;;;;;;;;;;5055232;28;20467;-80
2023/08/07 06:06:35;;;;;;;9.13;2.88;;;;;;;;;;5055643;28;20053;-80
2023/08/07 06:09:03;;;;;;;6.38;2.40;;;;;;;;;;5057142;28;20049;-80
2023/08/07 06:11:29;;;;;;;6.90;2.33;;;;;;;;;;5070525;28;20049;-80
2023/08/07 06:13:55;;;;;;;13.93;3.17;;;;;;;;;;5053555;28;20041;-80
2023/08/07 06:16:21;;;;;;;7.30;2.97;;;;;;;;;;5054706;28;20055;-80
2023/08/07 06:18:47;;;;;;;4.82;2.40;;;;;;;;;;5066960;28;20049;-80
2023/08/07 06:21:13;;;;;;;5.78;2.20;;;;;;;;;;5074405;28;20494;-80
2023/08/07 06:23:39;;;;;;;8.35;2.63;;;;;;;;;;5074282;28;20040;-80
2023/08/07 06:26:07;;;;;;;7.18;2.78;;;;;;;;;;5070722;28;20119;-80
2023/08/07 06:28:34;;;;;;;4.40;2.30;;;;;;;;;;5061195;28;20098;-80
2023/08/07 06:31:04;;;;;;;6.13;2.92;;;;;;;;;;5073510;28;20094;-80
2023/08/07 06:33:31;;;;;;;7.05;2.88;;;;;;;;;;5073364;28;20044;-80
2023/08/07 06:35:58;;;;;;;12.88;2.83;;;;;;;;;;5059964;28;20036;-80
2023/08/07 06:38:24;;;;;;;7.88;3.35;;;;;;;;;;5071425;28;20093;-80
2023/08/07 06:40:50;;;;;;;8.13;3.15;;;;;;;;;;5071771;28;20063;-79
2023/08/07 06:43:16;;;;;;;11.15;3.13;;;;;;;;;;5058218;28;20097;-79
2023/08/07 06:45:42;;;;;;;7.82;3.20;;;;;;;;;;5063758;28;20116;-80
2023/08/07 06:48:08;;;;;;;12.35;3.97;;;;;;;;;;5044596;28;20045;-80
2023/08/07 06:50:34;;;;;;;9.77;3.40;;;;;;;;;;5054082;28;20037;-80
2023/08/07 06:53:00;;;;;;;11.82;3.55;;;;;;;;;;5059455;28;20475;-79
2023/08/07 06:55:26;;;;;;;10.13;3.58;;;;;;;;;;5057171;28;20041;-79
2023/08/07 06:57:52;;;;;;;13.25;3.88;;;;;;;;;;5059382;28;20036;-79
2023/08/07 07:00:19;;;;;;;10.30;4.05;;;;;;;;;;5075235;28;20044;-79
2023/08/07 07:02:45;;;;;;;11.85;3.92;;;;;;;;;;5065592;28;20090;-79
2023/08/07 07:05:11;;;;;;;11.07;4.68;;;;;;;;;;5061675;28;20117;-79
2023/08/07 07:07:37;;;;;;;10.43;4.03;;;;;;;;;;5059507;28;20495;-79
2023/08/07 07:10:03;;;;;;;14.05;4.22;;;;;;;;;;5054081;28;20484;-79
2023/08/07 07:12:29;;;;;;;11.68;4.47;;;;;;;;;;5055634;28;20132;-80
2023/08/07 07:14:55;;;;;;;12.10;3.80;;;;;;;;;;5066595;28;20041;-79
2023/08/07 07:17:21;;;;;;;12.98;4.53;;;;;;;;;;5057303;28;20135;-79
2023/08/07 07:19:47;;;;;;;12.80;4.20;;;;;;;;;;5065871;28;20127;-79
2023/08/07 07:22:13;;;;;;;13.10;4.40;;;;;;;;;;5073198;28;20047;-79
2023/08/07 07:24:40;;;;;;;13.35;4.68;;;;;;;;;;5061948;28;20517;-79
2023/08/07 07:27:06;;;;;;;9.93;3.95;;;;;;;;;;5073406;28;20052;-79
2023/08/07 07:29:32;;;;;;;15.27;5.13;;;;;;;;;;5077890;28;20090;-79
2023/08/07 07:31:58;;;;;;;10.27;4.25;;;;;;;;;;5076042;28;20051;-79
2023/08/07 07:34:24;;;;;;;14.75;4.82;;;;;;;;;;5078618;28;20086;-79
2023/08/07 07:36:50;;;;;;;17.05;4.93;;;;;;;;;;5076681;28;20048;-79
2023/08/07 07:39:17;;;;;;;16.48;5.50;;;;;;;;;;5064352;28;20057;-79
2023/08/07 07:41:43;;;;;;;15.13;5.18;;;;;;;;;;5056289;28;20056;-80
2023/08/07 07:44:09;;;;;;;14.75;5.07;;;;;;;;;;5062031;28;20102;-79
2023/08/07 07:46:35;;;;;;;16.35;4.88;;;;;;;;;;5060371;28;20033;-79
2023/08/07 07:49:03;;;;;;;12.95;4.40;;;;;;;;;;5054265;28;20048;-79
2023/08/07 07:51:29;;;;;;;10.43;3.97;;;;;;;;;;5073752;28;20060;-79
2023/08/07 07:53:55;;;;;;;11.05;3.70;;;;;;;;;;5075262;28;20395;-79
2023/08/07 07:56:21;;;;;;;11.98;3.65;;;;;;;;;;5089892;28;20397;-79
2023/08/07 07:58:47;;;;;;;7.25;3.60;;;;;;;;;;5094876;28;20081;-79
2023/08/07 08:01:13;;;;;;;7.93;3.10;;;;;;;;;;5090398;28;20052;-79
2023/08/07 08:03:40;;;;;;;7.03;2.80;;;;;;;;;;5054604;28;20080;-79
2023/08/07 08:06:06;;;;;;;11.05;3.38;;;;;;;;;;5035310;28;20135;-80
2023/08/07 08:08:32;;;;;;;7.70;3.22;;;;;;;;;;5053844;28;20041;-80
2023/08/07 08:10:58;;;;;;;11.13;3.05;;;;;;;;;;5057079;28;20041;-80
2023/08/07 08:13:25;;;;;;;7.63;2.92;;;;;;;;;;5057598;28;20045;-80
2023/08/07 08:15:51;;;;;;;10.77;3.42;;;;;;;;;;5079549;28;20071;-80
2023/08/07 08:18:17;;;;;;;9.70;3.92;;;;;;;;;;5085006;28;20053;-80
2023/08/07 08:20:43;;;;;;;9.63;2.88;;;;;;;;;;5069432;28;20152;-80
2023/08/07 08:23:09;;;;;;;8.05;3.13;;;;;;;;;;5071378;28;20056;-83
2023/08/07 08:25:35;;;;;;;9.07;3.10;;;;;;;;;;5096856;28;20095;-82
2023/08/07 08:28:01;;;;;;;7.10;2.65;;;;;;;;;;5089975;28;20048;-83
2023/08/07 08:30:28;;;;;;;6.15;2.88;;;;;;;;;;5059906;28;20047;-80
2023/08/07 08:32:54;;;;;;;8.20;2.95;;;;;;;;;;5061550;28;20041;-80
2023/08/07 08:35:21;;;;;;;8.18;2.92;;;;;;;;;;5073122;28;20044;-80
2023/08/07 08:37:47;;;;;;;8.10;3.05;;;;;;;;;;5076339;28;20380;-80
2023/08/07 08:40:17;;;;;;;6.28;2.83;;;;;;;;;;5077189;28;20097;-80
2023/08/07 08:42:44;;;;;;;8.10;2.70;;;;;;;;;;5073724;28;20410;-80
2023/08/07 08:45:11;;;;;;;15.32;3.22;;;;;;;;;;5074924;28;20056;-80
2023/08/07 08:47:39;;;;;;;8.60;3.03;;;;;;;;;;5071370;28;20048;-80
2023/08/07 08:50:08;;;;;;;12.35;2.85;;;;;;;;;;5073528;28;20067;-80
2023/08/07 08:52:35;;;;;;;9.88;3.17;;;;;;;;;;5068279;28;20049;-80
2023/08/07 08:55:02;;;;;;;9.00;3.30;;;;;;;;;;5064229;28;20483;-80
2023/08/07 08:57:29;;;;;;;9.23;3.40;;;;;;;;;;5068522;28;20056;-80
2023/08/07 08:59:57;;;;;;;9.07;2.88;;;;;;;;;;5056520;28;20049;-80
2023/08/07 09:02:23;;;;;;;8.88;3.92;;;;;;;;;;5064778;28;20113;-80
2023/08/07 09:04:49;;;;;;;11.45;3.75;;;;;;;;;;5073630;28;20113;-80
2023/08/07 09:07:16;;;;;;;8.43;3.10;;;;;;;;;;5063589;28;20048;-79
2023/08/07 09:09:44;;;;;;;7.95;3.22;;;;;;;;;;5068155;28;20036;-81
2023/08/07 09:12:15;;;;;;;9.93;3.08;;;;;;;;;;5075166;28;20047;-80
2023/08/07 09:14:42;;;;;;;8.15;3.30;;;;;;;;;;5061712;28;20052;-81
2023/08/07 09:17:09;;;;;;;11.57;3.20;;;;;;;;;;5074983;28;20051;-83
2023/08/07 09:19:35;;;;;;;5.18;2.67;;;;;;;;;;5075611;28;20047;-82
2023/08/07 09:22:01;;;;;;;6.03;2.88;;;;;;;;;;5064689;28;20041;-79
2023/08/07 09:24:27;;;;;;;7.63;2.92;;;;;;;;;;5051679;28;20037;-79
2023/08/07 09:26:53;;;;;;;9.88;2.80;;;;;;;;;;5064971;28;20068;-80
2023/08/07 09:29:21;;;;;;;9.07;3.40;;;;;;;;;;5075617;28;20090;-79
2023/08/07 09:31:47;;;;;;;9.10;3.25;;;;;;;;;;5077060;28;20081;-79
2023/08/07 09:34:16;;;;;;;11.65;3.70;;;;;;;;;;5075752;28;20086;-80
2023/08/07 09:36:42;;;;;;;10.00;3.15;;;;;;;;;;5038853;28;20053;-80
2023/08/07 09:39:10;;;;;;;8.85;3.15;;;;;;;;;;5057290;28;20063;-80
2023/08/07 09:41:36;;;;;;;8.18;2.95;;;;;;;;;;5058459;28;20049;-79
2023/08/07 09:44:08;;;;;;;6.25;2.92;;;;;;;;;;5066575;28;20180;-80
2023/08/07 09:46:41;;;;;;;8.70;3.08;;;;;;;;;;5066967;28;20128;-80
2023/08/07 09:49:07;;;;;;;6.40;3.10;;;;;;;;;;5060779;28;20459;-80
2023/08/07 09:51:46;;;;;;;6.90;3.40;;;;;;;;;;5068784;28;20033;-80
2023/08/07 09:54:12;;;;;;;15.98;3.92;;;;;;;;;;5071509;28;20133;-80
2023/08/07 09:56:39;;;;;;;6.93;3.42;;;;;;;;;;5069395;28;20044;-80
2023/08/07 09:59:05;;;;;;;6.35;2.60;;;;;;;;;;5067939;28;20036;-79
2023/08/07 10:01:31;;;;;;;7.43;3.40;;;;;;;;;;5069496;28;20051;-80
2023/08/07 10:03:58;;;;;;;9.50;3.25;;;;;;;;;;5069183;28;20036;-80
2023/08/07 10:06:24;;;;;;;12.60;3.08;;;;;;;;;;5067068;28;20558;-80
2023/08/07 10:08:50;;;;;;;10.02;3.30;;;;;;;;;;5067416;28;20395;-79
2023/08/07 10:11:17;;;;;;;6.50;2.88;;;;;;;;;;5073197;28;20067;-79
2023/08/07 10:13:43;;;;;;;7.43;3.03;;;;;;;;;;5076921;28;20089;-80
2023/08/07 10:16:10;;;;;;;11.77;2.70;;;;;;;;;;5071248;28;20509;-80
2023/08/07 10:18:36;;;;;;;6.65;2.58;;;;;;;;;;5059595;28;20037;-79
2023/08/07 10:21:04;;;;;;;7.95;2.90;;;;;;;;;;5062857;28;20579;-79
2023/08/07 10:23:31;;;;;;;7.80;2.88;;;;;;;;;;5076106;28;20483;-81
2023/08/07 10:25:58;;;;;;;4.97;2.30;;;;;;;;;;5072889;28;20044;-79
2023/08/07 10:28:25;;;;;;;9.00;2.65;;;;;;;;;;5075082;28;20041;-79
2023/08/07 10:30:51;;;;;;;6.63;2.70;;;;;;;;;;5074065;28;20041;-78
2023/08/07 10:33:20;;;;;;;8.27;2.55;;;;;;;;;;5055497;28;20048;-78
2023/08/07 10:35:50;;;;;;;6.85;2.80;;;;;;;;;;5055937;28;20049;-79
2023/08/07 10:38:18;;;;;;;6.95;2.80;;;;;;;;;;5073743;28;20056;-79
2023/08/07 10:41:01;;;;;;;10.23;2.90;;;;;;;;;;5073725;28;20119;-79
2023/08/07 10:43:27;;;;;;;5.03;2.40;;;;;;;;;;5069768;28;20044;-79
2023/08/07 10:45:54;;;;;;;6.43;2.70;;;;;;;;;;5074894;28;20124;-79
2023/08/07 10:48:21;;;;;;;7.00;2.80;;;;;;;;;;5074648;28;20443;-79
2023/08/07 10:51:04;;;;;;;7.70;2.95;;;;;;;;;;5077485;28;20041;-80
2023/08/07 10:53:35;;;;;;;7.72;2.70;;;;;;;;;;5068074;28;20060;-80
2023/08/07 10:56:02;;;;;;;7.15;2.83;;;;;;;;;;5075535;28;20072;-80
2023/08/07 10:58:41;;;;;;;6.07;2.55;;;;;;;;;;5062485;28;20526;-80
2023/08/07 11:01:28;;;;;;;6.63;3.05;;;;;;;;;;5064348;28;20135;-82
2023/08/07 11:03:55;;;;;;;7.97;2.90;;;;;;;;;;5075035;28;20505;-80
2023/08/07 11:06:22;;;;;;;7.18;2.78;;;;;;;;;;5066572;28;20045;-81
2023/08/07 11:08:48;;;;;;;6.90;2.83;;;;;;;;;;5063706;28;20044;-81
2023/08/07 11:11:15;;;;;;;6.80;3.13;;;;;;;;;;5064815;28;20045;-83
2023/08/07 11:13:41;;;;;;;6.63;3.35;;;;;;;;;;5066634;28;20128;-81
2023/08/07 11:16:07;;;;;;;6.35;3.05;;;;;;;;;;5071074;28;20048;-81
2023/08/07 11:18:35;;;;;;;6.38;3.00;;;;;;;;;;5073259;28;20076;-80
2023/08/07 11:21:02;;;;;;;11.02;2.90;;;;;;;;;;5063422;28;20045;-81
2023/08/07 11:23:30;;;;;;;8.70;3.30;;;;;;;;;;5063627;28;20094;-81
2023/08/07 11:25:56;;;;;;;9.63;3.35;;;;;;;;;;5076646;28;20436;-79
2023/08/07 11:28:24;;;;;;;8.75;3.83;;;;;;;;;;5068494;28;20105;-79
2023/08/07 11:30:52;;;;;;;11.05;3.53;;;;;;;;;;5065793;28;20044;-79
2023/08/07 11:33:19;;;;;;;12.40;4.15;;;;;;;;;;5067940;28;20060;-80
2023/08/07 11:35:45;;;;;;;8.73;4.00;;;;;;;;;;5072926;28;20089;-79
2023/08/07 11:38:11;;;;;;;8.40;3.72;;;;;;;;;;5065166;28;20473;-79
2023/08/07 11:40:37;;;;;;;7.28;4.15;;;;;;;;;;5063396;28;20049;-79
2023/08/07 11:43:03;;;;;;;8.90;4.00;;;;;;;;;;5069471;28;20047;-79
2023/08/07 11:45:29;;;;;;;8.18;3.42;;;;;;;;;;5062061;28;20159;-79
2023/08/07 11:47:59;;;;;;;8.45;3.25;;;;;;;;;;5081299;28;20040;-79
2023/08/07 11:50:25;;;;;;;8.65;3.83;;;;;;;;;;5075830;28;20045;-80
2023/08/07 11:52:51;;;;;;;8.63;3.38;;;;;;;;;;5061026;28;20399;-80
2023/08/07 11:55:18;;;;;;;10.45;3.25;;;;;;;;;;5074879;28;20040;-80
2023/08/07 11:57:46;;;;;;;7.95;2.75;;;;;;;;;;5075128;28;20872;-80
2023/08/07 12:00:13;;;;;;;5.82;2.83;;;;;;;;;;5075652;28;20044;-81
2023/08/07 12:02:46;;;;;;;5.28;2.00;;;;;;;;;;5075632;28;20040;-80
2023/08/07 12:05:12;;;;;;;4.93;2.17;;;;;;;;;;5066024;28;20147;-81
2023/08/07 12:07:39;;;;;;;7.05;2.83;;;;;;;;;;5070493;28;20040;-81
2023/08/07 12:10:07;;;;;;;4.60;2.55;;;;;;;;;;5061691;28;20107;-81
2023/08/07 12:12:34;;;;;;;6.20;2.63;;;;;;;;;;5074535;28;20102;-81
2023/08/07 12:15:00;;;;;;;6.18;2.60;;;;;;;;;;5072897;28;20052;-81
2023/08/07 12:17:26;;;;;;;7.07;2.80;;;;;;;;;;5073974;28;20123;-82
2023/08/07 12:19:52;;;;;;;5.78;2.95;;;;;;;;;;5062200;28;20381;-82
2023/08/07 12:22:21;;;;;;;6.10;3.13;;;;;;;;;;5067781;28;20433;-81
2023/08/07 12:24:47;;;;;;;6.32;3.05;;;;;;;;;;5069456;28;20461;-84
2023/08/07 12:27:13;;;;;;;6.85;3.05;;;;;;;;;;5059904;28;20041;-81
2023/08/07 12:29:39;;;;;;;7.03;3.28;;;;;;;;;;5059370;28;20494;-81
2023/08/07 12:32:06;;;;;;;8.75;3.60;;;;;;;;;;5081765;28;20057;-82
2023/08/07 12:34:32;;;;;;;9.82;3.10;;;;;;;;;;5061122;28;20129;-82
2023/08/07 12:36:58;;;;;;;13.38;3.67;;;;;;;;;;5053970;28;20064;-81
2023/08/07 12:39:24;;;;;;;8.05;3.20;;;;;;;;;;5062750;28;20063;-81
2023/08/07 12:41:50;;;;;;;8.57;3.92;;;;;;;;;;5060656;28;20060;-81
2023/08/07 12:44:17;;;;;;;10.55;4.20;;;;;;;;;;5068850;28;20049;-81
2023/08/07 12:46:43;;;;;;;10.38;4.10;;;;;;;;;;5071245;28;20518;-81
2023/08/07 12:49:09;;;;;;;7.13;3.30;;;;;;;;;;5063437;28;20418;-81
2023/08/07 12:51:35;;;;;;;8.75;3.15;;;;;;;;;;5068347;28;20033;-81
2023/08/07 12:54:01;;;;;;;8.00;3.20;;;;;;;;;;5068604;28;20048;-81
2023/08/07 12:56:27;;;;;;;6.22;2.90;;;;;;;;;;5068863;28;20041;-81
2023/08/07 12:58:53;;;;;;;9.00;3.42;;;;;;;;;;5060894;28;20123;-81
2023/08/07 13:01:19;;;;;;;6.47;3.33;;;;;;;;;;5067496;28;20091;-81
2023/08/07 13:03:45;;;;;;;12.02;3.80;;;;;;;;;;5075103;28;20080;-81
2023/08/07 13:06:12;;;;;;;10.65;3.70;;;;;;;;;;5074943;28;20044;-81
2023/08/07 13:08:40;;;;;;;9.63;3.38;;;;;;;;;;5071417;28;20548;-81
2023/08/07 13:11:06;;;;;;;6.88;3.45;;;;;;;;;;5077692;28;20098;-80
2023/08/07 13:13:32;;;;;;;6.53;3.15;;;;;;;;;;5077071;28;20045;-82
2023/08/07 13:16:01;;;;;;;7.68;3.33;;;;;;;;;;5075512;28;20055;-87
2023/08/07 13:18:28;;;;;;;6.10;3.08;;;;;;;;;;5075198;28;20436;-85
2023/08/07 13:20:54;;;;;;;8.02;3.10;;;;;;;;;;5074988;28;20044;-83
2023/08/07 13:23:23;;;;;;;7.88;2.67;;;;;;;;;;5075774;28;20044;-83
2023/08/07 13:25:49;;;;;;;5.15;2.80;;;;;;;;;;5075859;28;20047;-82
2023/08/07 13:28:16;;;;;;;7.47;3.13;;;;;;;;;;5073972;28;20557;-82
2023/08/07 13:30:42;;;;;;;8.30;2.90;;;;;;;;;;5071533;28;20040;-82
2023/08/07 13:33:08;;;;;;;8.85;3.28;;;;;;;;;;5065640;28;20068;-81
2023/08/07 13:35:34;;;;;;;6.72;2.85;;;;;;;;;;5072729;28;20040;-81
2023/08/07 13:38:04;;;;;;;6.35;2.65;;;;;;;;;;5070389;28;20090;-81
2023/08/07 13:40:30;;;;;;;9.43;3.20;;;;;;;;;;5067341;28;20036;-81
2023/08/07 13:42:56;;;;;;;7.07;3.00;;;;;;;;;;5069920;28;20037;-79
2023/08/07 13:45:23;;;;;;;8.60;2.80;;;;;;;;;;5065991;28;20041;-80
2023/08/07 13:47:49;;;;;;;7.93;3.38;;;;;;;;;;5074711;28;20037;-81
2023/08/07 13:50:15;;;;;;;7.65;2.88;;;;;;;;;;5075560;28;20483;-81
2023/08/07 13:52:41;;;;;;;8.60;3.22;;;;;;;;;;5070928;28;20118;-81
2023/08/07 13:55:08;;;;;;;8.77;2.95;;;;;;;;;;5055665;28;20128;-81
2023/08/07 13:57:34;;;;;;;8.20;3.20;;;;;;;;;;5067121;28;20049;-81
2023/08/07 14:00:00;;;;;;;8.15;3.60;;;;;;;;;;5065646;28;20170;-80
2023/08/07 14:02:26;;;;;;;8.05;3.35;;;;;;;;;;5074502;28;20037;-80
2023/08/07 14:04:53;;;;;;;5.53;2.42;;;;;;;;;;5071740;28;20040;-81
2023/08/07 14:07:19;;;;;;;5.35;2.80;;;;;;;;;;5069726;28;20036;-81
2023/08/07 14:09:45;;;;;;;7.50;2.65;;;;;;;;;;5073005;28;20126;-81
2023/08/07 14:12:11;;;;;;;10.60;3.42;;;;;;;;;;5066172;28;20055;-81
2023/08/07 14:14:37;;;;;;;7.75;3.35;;;;;;;;;;5069345;28;20144;-86
2023/08/07 14:17:03;;;;;;;9.90;3.00;;;;;;;;;;5062874;28;20048;-81
2023/08/07 14:19:29;;;;;;;6.22;2.97;;;;;;;;;;5063341;28;20041;-81
2023/08/07 14:21:55;;;;;;;7.38;2.70;;;;;;;;;;5067428;28;20055;-80
2023/08/07 14:24:21;;;;;;;5.13;2.22;;;;;;;;;;5072453;28;20049;-80
2023/08/07 14:26:47;;;;;;;6.93;2.60;;;;;;;;;;5075004;28;20055;-81
2023/08/07 14:29:14;;;;;;;7.03;3.28;;;;;;;;;;5071229;28;20060;-81
2023/08/07 14:31:40;;;;;;;6.22;2.78;;;;;;;;;;5063748;28;20123;-80
2023/08/07 14:34:07;;;;;;;4.95;2.63;;;;;;;;;;5071256;28;20090;-80
2023/08/07 14:36:33;;;;;;;7.60;2.78;;;;;;;;;;5073870;28;20486;-80